sensor_id;sensor_type;location;lat;lon;timestamp;temperature;humidity
66271;DHT22;53063;39.614;8.814;2023-04-16T00:02:19;10.90;99.90
66271;DHT22;53063;39.614;8.814;2023-04-16T00:04:46;10.80;99.90
66271;DHT22;53063;39.614;8.814;2023-04-16T00:07:12;10.70;99.90
66271;DHT22;53063;39.614;8.814;2023-04-16T00:09:38;10.70;99.90
66271;DHT22;53063;39.614;8.814;2023-04-16T00:12:05;10.60;99.90
66271;DHT22;53063;39.614;8.814;2023-04-16T00:14:31;10.50;99.90
66271;DHT22;53063;39.614;8.814;2023-04-16T00:16:57;10.50;99.90
66271;DHT22;53063;39.614;8.814;2023-04-16T00:19:23;10.50;99.90
66271;DHT22;53063;39.614;8.814;2023-04-16T00:21:50;10.70;99.90
66271;DHT22;53063;39.614;8.814;2023-04-16T00:24:16;10.80;99.90
66271;DHT22;53063;39.614;8.814;2023-04-16T00:26:42;10.90;99.90
66271;DHT22;53063;39.614;8.814;2023-04-16T00:29:10;10.90;99.90
66271;DHT22;53063;39.614;8.814;2023-04-16T00:31:37;10.90;99.90
66271;DHT22;53063;39.614;8.814;2023-04-16T00:34:03;11.10;99.90
66271;DHT22;53063;39.614;8.814;2023-04-16T00:36:30;11.10;99.90
66271;DHT22;53063;39.614;8.814;2023-04-16T00:38:56;11.10;99.90
66271;DHT22;53063;39.614;8.814;2023-04-16T00:41:22;11.10;99.90
66271;DHT22;53063;39.614;8.814;2023-04-16T00:43:49;11.10;99.90
66271;DHT22;53063;39.614;8.814;2023-04-16T00:46:18;11.10;99.90
66271;DHT22;53063;39.614;8.814;2023-04-16T00:48:45;11.10;99.90
66271;DHT22;53063;39.614;8.814;2023-04-16T00:51:12;11.10;99.90
66271;DHT22;53063;39.614;8.814;2023-04-16T00:53:38;11.10;99.90
66271;DHT22;53063;39.614;8.814;2023-04-16T00:56:06;11.10;99.90
66271;DHT22;53063;39.614;8.814;2023-04-16T00:58:33;11.00;99.90
66271;DHT22;53063;39.614;8.814;2023-04-16T01:01:00;11.10;99.90
66271;DHT22;53063;39.614;8.814;2023-04-16T01:03:37;11.10;99.90
66271;DHT22;53063;39.614;8.814;2023-04-16T01:06:05;11.10;99.90
66271;DHT22;53063;39.614;8.814;2023-04-16T01:08:32;11.10;99.90
66271;DHT22;53063;39.614;8.814;2023-04-16T01:10:58;11.20;99.90
66271;DHT22;53063;39.614;8.814;2023-04-16T01:13:24;11.10;99.90
66271;DHT22;53063;39.614;8.814;2023-04-16T01:15:51;11.10;99.90
66271;DHT22;53063;39.614;8.814;2023-04-16T01:18:18;11.10;99.90
66271;DHT22;53063;39.614;8.814;2023-04-16T01:20:46;11.10;99.90
66271;DHT22;53063;39.614;8.814;2023-04-16T01:23:13;11.10;99.90
66271;DHT22;53063;39.614;8.814;2023-04-16T01:25:39;11.00;99.90
66271;DHT22;53063;39.614;8.814;2023-04-16T01:28:06;11.10;99.90
66271;DHT22;53063;39.614;8.814;2023-04-16T01:30:32;11.10;99.90
66271;DHT22;53063;39.614;8.814;2023-04-16T01:33:10;11.10;99.90
66271;DHT22;53063;39.614;8.814;2023-04-16T01:35:38;11.10;99.90
66271;DHT22;53063;39.614;8.814;2023-04-16T01:38:07;11.00;99.90
66271;DHT22;53063;39.614;8.814;2023-04-16T01:40:34;11.00;99.90
66271;DHT22;53063;39.614;8.814;2023-04-16T01:43:00;11.00;99.90
66271;DHT22;53063;39.614;8.814;2023-04-16T01:45:26;10.90;99.90
66271;DHT22;53063;39.614;8.814;2023-04-16T01:47:52;10.80;99.90
66271;DHT22;53063;39.614;8.814;2023-04-16T01:50:19;10.80;99.90
66271;DHT22;53063;39.614;8.814;2023-04-16T01:52:45;10.80;99.90
66271;DHT22;53063;39.614;8.814;2023-04-16T01:55:11;10.80;99.90
66271;DHT22;53063;39.614;8.814;2023-04-16T01:57:38;10.80;99.90
66271;DHT22;53063;39.614;8.814;2023-04-16T02:00:04;10.80;99.90
66271;DHT22;53063;39.614;8.814;2023-04-16T02:02:32;10.80;99.90
66271;DHT22;53063;39.614;8.814;2023-04-16T02:04:59;10.80;99.90
66271;DHT22;53063;39.614;8.814;2023-04-16T02:07:25;10.70;99.90
66271;DHT22;53063;39.614;8.814;2023-04-16T02:09:52;10.70;99.90
66271;DHT22;53063;39.614;8.814;2023-04-16T02:12:18;10.60;99.90
66271;DHT22;53063;39.614;8.814;2023-04-16T02:14:46;10.60;99.90
66271;DHT22;53063;39.614;8.814;2023-04-16T02:17:14;10.60;99.90
66271;DHT22;53063;39.614;8.814;2023-04-16T02:19:43;10.50;99.90
66271;DHT22;53063;39.614;8.814;2023-04-16T02:22:09;10.60;99.90
66271;DHT22;53063;39.614;8.814;2023-04-16T02:24:35;10.60;99.90
66271;DHT22;53063;39.614;8.814;2023-04-16T02:27:05;10.60;99.90
66271;DHT22;53063;39.614;8.814;2023-04-16T02:29:31;10.60;99.90
66271;DHT22;53063;39.614;8.814;2023-04-16T02:32:08;10.60;99.90
66271;DHT22;53063;39.614;8.814;2023-04-16T02:34:35;10.50;99.90
66271;DHT22;53063;39.614;8.814;2023-04-16T02:37:01;10.40;99.90
66271;DHT22;53063;39.614;8.814;2023-04-16T02:39:27;10.40;99.90
66271;DHT22;53063;39.614;8.814;2023-04-16T02:41:53;10.40;99.90
66271;DHT22;53063;39.614;8.814;2023-04-16T02:44:20;10.40;99.90
66271;DHT22;53063;39.614;8.814;2023-04-16T02:46:46;10.40;99.90
66271;DHT22;53063;39.614;8.814;2023-04-16T02:49:12;10.40;99.90
66271;DHT22;53063;39.614;8.814;2023-04-16T02:51:38;10.30;99.90
66271;DHT22;53063;39.614;8.814;2023-04-16T02:54:04;10.30;99.90
66271;DHT22;53063;39.614;8.814;2023-04-16T02:56:31;10.30;99.90
66271;DHT22;53063;39.614;8.814;2023-04-16T02:58:57;10.30;99.90
66271;DHT22;53063;39.614;8.814;2023-04-16T03:01:23;10.30;99.90
66271;DHT22;53063;39.614;8.814;2023-04-16T03:03:49;10.40;99.90
66271;DHT22;53063;39.614;8.814;2023-04-16T03:06:15;10.30;99.90
66271;DHT22;53063;39.614;8.814;2023-04-16T03:08:41;10.30;99.90
66271;DHT22;53063;39.614;8.814;2023-04-16T03:11:07;10.30;99.90
66271;DHT22;53063;39.614;8.814;2023-04-16T03:13:33;10.20;99.90
66271;DHT22;53063;39.614;8.814;2023-04-16T03:15:59;10.20;99.90
66271;DHT22;53063;39.614;8.814;2023-04-16T03:18:24;10.20;99.90
66271;DHT22;53063;39.614;8.814;2023-04-16T03:20:51;10.10;99.90
66271;DHT22;53063;39.614;8.814;2023-04-16T03:23:17;10.20;99.90
66271;DHT22;53063;39.614;8.814;2023-04-16T03:25:44;10.10;99.90
66271;DHT22;53063;39.614;8.814;2023-04-16T03:28:14;10.10;99.90
66271;DHT22;53063;39.614;8.814;2023-04-16T03:30:41;10.00;99.90
66271;DHT22;53063;39.614;8.814;2023-04-16T03:33:07;10.10;99.90
66271;DHT22;53063;39.614;8.814;2023-04-16T03:35:34;10.00;99.90
66271;DHT22;53063;39.614;8.814;2023-04-16T03:38:01;10.10;99.90
66271;DHT22;53063;39.614;8.814;2023-04-16T03:40:27;10.00;99.90
66271;DHT22;53063;39.614;8.814;2023-04-16T03:42:54;10.00;99.90
66271;DHT22;53063;39.614;8.814;2023-04-16T03:45:20;10.10;99.90
66271;DHT22;53063;39.614;8.814;2023-04-16T03:47:48;10.10;99.90
66271;DHT22;53063;39.614;8.814;2023-04-16T03:50:19;10.20;99.90
66271;DHT22;53063;39.614;8.814;2023-04-16T03:52:46;10.10;99.90
66271;DHT22;53063;39.614;8.814;2023-04-16T03:55:14;10.10;99.90
66271;DHT22;53063;39.614;8.814;2023-04-16T03:57:40;9.90;99.90
66271;DHT22;53063;39.614;8.814;2023-04-16T04:00:10;9.90;99.90
66271;DHT22;53063;39.614;8.814;2023-04-16T04:02:58;9.80;99.90
66271;DHT22;53063;39.614;8.814;2023-04-16T04:05:24;9.80;99.90
66271;DHT22;53063;39.614;8.814;2023-04-16T04:07:51;9.70;99.90
66271;DHT22;53063;39.614;8.814;2023-04-16T04:10:17;9.70;99.90
66271;DHT22;53063;39.614;8.814;2023-04-16T04:12:43;9.70;99.90
66271;DHT22;53063;39.614;8.814;2023-04-16T04:15:09;9.50;99.90
66271;DHT22;53063;39.614;8.814;2023-04-16T04:17:36;9.60;99.90
66271;DHT22;53063;39.614;8.814;2023-04-16T04:20:02;9.60;99.90
66271;DHT22;53063;39.614;8.814;2023-04-16T04:22:30;9.60;99.90
66271;DHT22;53063;39.614;8.814;2023-04-16T04:24:56;9.50;99.90
66271;DHT22;53063;39.614;8.814;2023-04-16T04:27:26;9.50;99.90
66271;DHT22;53063;39.614;8.814;2023-04-16T04:29:52;9.40;99.90
66271;DHT22;53063;39.614;8.814;2023-04-16T04:32:18;9.40;99.90
66271;DHT22;53063;39.614;8.814;2023-04-16T04:34:44;9.50;99.90
66271;DHT22;53063;39.614;8.814;2023-04-16T04:37:10;9.50;99.90
66271;DHT22;53063;39.614;8.814;2023-04-16T04:39:37;9.50;99.90
66271;DHT22;53063;39.614;8.814;2023-04-16T04:42:02;9.50;99.90
66271;DHT22;53063;39.614;8.814;2023-04-16T04:44:28;9.50;99.90
66271;DHT22;53063;39.614;8.814;2023-04-16T04:46:55;9.60;99.90
66271;DHT22;53063;39.614;8.814;2023-04-16T04:49:21;9.70;99.90
66271;DHT22;53063;39.614;8.814;2023-04-16T04:51:47;9.70;99.90
66271;DHT22;53063;39.614;8.814;2023-04-16T04:54:13;9.70;99.90
66271;DHT22;53063;39.614;8.814;2023-04-16T04:56:41;9.70;99.90
66271;DHT22;53063;39.614;8.814;2023-04-16T04:59:10;9.70;99.90
66271;DHT22;53063;39.614;8.814;2023-04-16T05:01:37;9.60;99.90
66271;DHT22;53063;39.614;8.814;2023-04-16T05:04:03;9.70;99.90
66271;DHT22;53063;39.614;8.814;2023-04-16T05:06:29;9.80;99.90
66271;DHT22;53063;39.614;8.814;2023-04-16T05:08:55;9.80;99.90
66271;DHT22;53063;39.614;8.814;2023-04-16T05:11:21;9.80;99.90
66271;DHT22;53063;39.614;8.814;2023-04-16T05:13:47;9.90;99.90
66271;DHT22;53063;39.614;8.814;2023-04-16T05:16:13;10.00;99.90
66271;DHT22;53063;39.614;8.814;2023-04-16T05:18:39;9.90;99.90
66271;DHT22;53063;39.614;8.814;2023-04-16T05:21:05;9.90;99.90
66271;DHT22;53063;39.614;8.814;2023-04-16T05:23:31;9.90;99.90
66271;DHT22;53063;39.614;8.814;2023-04-16T05:25:57;10.00;99.90
66271;DHT22;53063;39.614;8.814;2023-04-16T05:28:22;10.10;99.90
66271;DHT22;53063;39.614;8.814;2023-04-16T05:30:50;10.10;99.90
66271;DHT22;53063;39.614;8.814;2023-04-16T05:33:16;10.20;99.90
66271;DHT22;53063;39.614;8.814;2023-04-16T05:35:41;10.30;99.90
66271;DHT22;53063;39.614;8.814;2023-04-16T05:38:07;10.30;99.90
66271;DHT22;53063;39.614;8.814;2023-04-16T05:40:33;10.30;99.90
66271;DHT22;53063;39.614;8.814;2023-04-16T05:42:59;10.50;99.90
66271;DHT22;53063;39.614;8.814;2023-04-16T05:45:25;10.60;99.90
66271;DHT22;53063;39.614;8.814;2023-04-16T05:47:51;10.90;99.90
66271;DHT22;53063;39.614;8.814;2023-04-16T05:50:17;11.00;99.90
66271;DHT22;53063;39.614;8.814;2023-04-16T05:52:43;11.10;99.90
66271;DHT22;53063;39.614;8.814;2023-04-16T05:55:09;11.20;99.90
66271;DHT22;53063;39.614;8.814;2023-04-16T05:57:35;11.40;99.90
66271;DHT22;53063;39.614;8.814;2023-04-16T06:00:01;11.50;99.90
66271;DHT22;53063;39.614;8.814;2023-04-16T06:02:26;11.50;99.90
66271;DHT22;53063;39.614;8.814;2023-04-16T06:04:52;11.70;99.90
66271;DHT22;53063;39.614;8.814;2023-04-16T06:07:18;11.80;99.90
66271;DHT22;53063;39.614;8.814;2023-04-16T06:09:44;11.90;99.90
66271;DHT22;53063;39.614;8.814;2023-04-16T06:12:10;12.30;99.90
66271;DHT22;53063;39.614;8.814;2023-04-16T06:14:36;12.60;99.90
66271;DHT22;53063;39.614;8.814;2023-04-16T06:17:02;13.30;99.90
66271;DHT22;53063;39.614;8.814;2023-04-16T06:19:28;14.50;99.90
66271;DHT22;53063;39.614;8.814;2023-04-16T06:21:53;15.00;94.30
66271;DHT22;53063;39.614;8.814;2023-04-16T06:24:20;13.70;97.60
66271;DHT22;53063;39.614;8.814;2023-04-16T06:26:45;13.50;99.90
66271;DHT22;53063;39.614;8.814;2023-04-16T06:29:11;13.50;99.90
66271;DHT22;53063;39.614;8.814;2023-04-16T06:31:38;13.10;99.90
66271;DHT22;53063;39.614;8.814;2023-04-16T06:34:03;13.10;99.90
66271;DHT22;53063;39.614;8.814;2023-04-16T06:36:29;12.70;99.90
66271;DHT22;53063;39.614;8.814;2023-04-16T06:38:55;13.20;99.90
66271;DHT22;53063;39.614;8.814;2023-04-16T06:41:21;13.30;99.90
66271;DHT22;53063;39.614;8.814;2023-04-16T06:43:50;14.40;99.90
66271;DHT22;53063;39.614;8.814;2023-04-16T06:46:16;17.40;94.90
66271;DHT22;53063;39.614;8.814;2023-04-16T06:48:41;18.70;86.70
66271;DHT22;53063;39.614;8.814;2023-04-16T06:51:08;19.50;77.60
66271;DHT22;53063;39.614;8.814;2023-04-16T06:53:35;20.00;76.50
66271;DHT22;53063;39.614;8.814;2023-04-16T06:56:02;20.20;71.60
66271;DHT22;53063;39.614;8.814;2023-04-16T06:58:27;20.30;71.70
66271;DHT22;53063;39.614;8.814;2023-04-16T07:00:53;20.40;70.50
66271;DHT22;53063;39.614;8.814;2023-04-16T07:03:19;20.70;69.00
66271;DHT22;53063;39.614;8.814;2023-04-16T07:05:45;18.50;70.60
66271;DHT22;53063;39.614;8.814;2023-04-16T07:08:11;19.10;71.80
66271;DHT22;53063;39.614;8.814;2023-04-16T07:10:37;20.30;68.10
66271;DHT22;53063;39.614;8.814;2023-04-16T07:13:03;20.10;65.90
66271;DHT22;53063;39.614;8.814;2023-04-16T07:15:29;19.80;68.10
66271;DHT22;53063;39.614;8.814;2023-04-16T07:17:55;21.20;66.20
66271;DHT22;53063;39.614;8.814;2023-04-16T07:20:21;21.40;65.20
66271;DHT22;53063;39.614;8.814;2023-04-16T07:22:47;22.50;62.20
66271;DHT22;53063;39.614;8.814;2023-04-16T07:25:12;23.20;60.00
66271;DHT22;53063;39.614;8.814;2023-04-16T07:27:38;23.40;58.90
66271;DHT22;53063;39.614;8.814;2023-04-16T07:30:05;23.40;59.10
66271;DHT22;53063;39.614;8.814;2023-04-16T07:32:31;23.10;58.70
66271;DHT22;53063;39.614;8.814;2023-04-16T07:34:57;23.10;58.50
66271;DHT22;53063;39.614;8.814;2023-04-16T07:37:23;23.60;56.80
66271;DHT22;53063;39.614;8.814;2023-04-16T07:39:49;23.00;58.40
66271;DHT22;53063;39.614;8.814;2023-04-16T07:42:16;23.80;55.90
66271;DHT22;53063;39.614;8.814;2023-04-16T07:44:42;23.40;56.30
66271;DHT22;53063;39.614;8.814;2023-04-16T07:47:08;23.30;56.80
66271;DHT22;53063;39.614;8.814;2023-04-16T07:49:34;20.10;62.30
66271;DHT22;53063;39.614;8.814;2023-04-16T07:52:00;18.50;69.50
66271;DHT22;53063;39.614;8.814;2023-04-16T07:54:26;18.10;73.00
66271;DHT22;53063;39.614;8.814;2023-04-16T07:56:52;18.10;75.50
66271;DHT22;53063;39.614;8.814;2023-04-16T07:59:18;18.10;75.10
66271;DHT22;53063;39.614;8.814;2023-04-16T08:01:44;18.80;76.30
66271;DHT22;53063;39.614;8.814;2023-04-16T08:04:10;18.90;74.50
66271;DHT22;53063;39.614;8.814;2023-04-16T08:06:35;19.20;72.60
66271;DHT22;53063;39.614;8.814;2023-04-16T08:09:02;19.20;70.90
66271;DHT22;53063;39.614;8.814;2023-04-16T08:11:28;18.70;71.90
66271;DHT22;53063;39.614;8.814;2023-04-16T08:13:54;18.30;74.20
66271;DHT22;53063;39.614;8.814;2023-04-16T08:16:20;17.40;76.00
66271;DHT22;53063;39.614;8.814;2023-04-16T08:18:46;16.80;78.70
66271;DHT22;53063;39.614;8.814;2023-04-16T08:21:11;16.90;79.60
66271;DHT22;53063;39.614;8.814;2023-04-16T08:23:37;16.40;81.10
66271;DHT22;53063;39.614;8.814;2023-04-16T08:26:04;16.30;81.60
66271;DHT22;53063;39.614;8.814;2023-04-16T08:28:30;17.20;80.30
66271;DHT22;53063;39.614;8.814;2023-04-16T08:30:56;17.30;78.40
66271;DHT22;53063;39.614;8.814;2023-04-16T08:33:22;17.50;78.10
66271;DHT22;53063;39.614;8.814;2023-04-16T08:35:48;17.40;77.10
66271;DHT22;53063;39.614;8.814;2023-04-16T08:38:14;18.10;75.40
66271;DHT22;53063;39.614;8.814;2023-04-16T08:40:40;18.00;74.60
66271;DHT22;53063;39.614;8.814;2023-04-16T08:43:11;18.40;72.80
66271;DHT22;53063;39.614;8.814;2023-04-16T08:45:40;18.90;70.80
66271;DHT22;53063;39.614;8.814;2023-04-16T08:48:08;17.50;73.00
66271;DHT22;53063;39.614;8.814;2023-04-16T08:50:36;16.80;76.60
66271;DHT22;53063;39.614;8.814;2023-04-16T08:53:06;17.30;74.20
66271;DHT22;53063;39.614;8.814;2023-04-16T08:55:39;18.50;72.00
66271;DHT22;53063;39.614;8.814;2023-04-16T08:58:17;19.60;70.00
66271;DHT22;53063;39.614;8.814;2023-04-16T09:00:43;19.80;64.70
66271;DHT22;53063;39.614;8.814;2023-04-16T09:03:11;20.20;65.60
66271;DHT22;53063;39.614;8.814;2023-04-16T09:05:38;20.10;62.30
66271;DHT22;53063;39.614;8.814;2023-04-16T09:08:05;20.40;63.60
66271;DHT22;53063;39.614;8.814;2023-04-16T09:10:31;20.60;61.90
66271;DHT22;53063;39.614;8.814;2023-04-16T09:12:57;20.10;62.50
66271;DHT22;53063;39.614;8.814;2023-04-16T09:15:24;19.80;62.00
66271;DHT22;53063;39.614;8.814;2023-04-16T09:17:51;19.40;62.70
66271;DHT22;53063;39.614;8.814;2023-04-16T09:20:18;20.00;64.50
66271;DHT22;53063;39.614;8.814;2023-04-16T09:22:44;20.90;62.10
66271;DHT22;53063;39.614;8.814;2023-04-16T09:25:11;20.00;62.70
66271;DHT22;53063;39.614;8.814;2023-04-16T09:27:38;19.90;63.40
66271;DHT22;53063;39.614;8.814;2023-04-16T09:32:49;20.40;64.00
66271;DHT22;53063;39.614;8.814;2023-04-16T09:35:17;21.20;60.60
66271;DHT22;53063;39.614;8.814;2023-04-16T09:37:46;19.80;63.20
66271;DHT22;53063;39.614;8.814;2023-04-16T09:40:23;19.90;63.70
66271;DHT22;53063;39.614;8.814;2023-04-16T09:42:51;20.80;60.80
66271;DHT22;53063;39.614;8.814;2023-04-16T09:45:17;20.10;59.10
66271;DHT22;53063;39.614;8.814;2023-04-16T09:47:44;20.90;59.70
66271;DHT22;53063;39.614;8.814;2023-04-16T09:50:19;21.10;58.70
66271;DHT22;53063;39.614;8.814;2023-04-16T09:52:48;21.20;57.20
66271;DHT22;53063;39.614;8.814;2023-04-16T09:55:15;21.50;57.30
66271;DHT22;53063;39.614;8.814;2023-04-16T09:57:46;21.60;56.00
66271;DHT22;53063;39.614;8.814;2023-04-16T10:00:17;21.70;55.90
66271;DHT22;53063;39.614;8.814;2023-04-16T10:02:43;21.70;55.90
66271;DHT22;53063;39.614;8.814;2023-04-16T10:05:13;20.90;58.10
66271;DHT22;53063;39.614;8.814;2023-04-16T10:07:42;21.30;58.90
66271;DHT22;53063;39.614;8.814;2023-04-16T10:10:08;22.00;58.70
66271;DHT22;53063;39.614;8.814;2023-04-16T10:12:34;21.90;56.40
66271;DHT22;53063;39.614;8.814;2023-04-16T10:15:01;22.30;56.40
66271;DHT22;53063;39.614;8.814;2023-04-16T10:17:26;21.80;57.70
66271;DHT22;53063;39.614;8.814;2023-04-16T10:19:55;22.30;54.90
66271;DHT22;53063;39.614;8.814;2023-04-16T10:22:22;22.40;56.30
66271;DHT22;53063;39.614;8.814;2023-04-16T10:24:49;22.50;54.70
66271;DHT22;53063;39.614;8.814;2023-04-16T10:27:15;22.10;54.50
66271;DHT22;53063;39.614;8.814;2023-04-16T10:29:42;22.20;55.60
66271;DHT22;53063;39.614;8.814;2023-04-16T10:32:09;22.90;55.90
66271;DHT22;53063;39.614;8.814;2023-04-16T10:34:35;22.60;55.60
66271;DHT22;53063;39.614;8.814;2023-04-16T10:37:01;22.40;58.00
66271;DHT22;53063;39.614;8.814;2023-04-16T10:39:27;22.30;58.30
66271;DHT22;53063;39.614;8.814;2023-04-16T10:42:10;22.60;57.10
66271;DHT22;53063;39.614;8.814;2023-04-16T10:44:38;22.60;57.20
66271;DHT22;53063;39.614;8.814;2023-04-16T10:47:11;22.40;57.00
66271;DHT22;53063;39.614;8.814;2023-04-16T10:49:37;22.10;58.20
66271;DHT22;53063;39.614;8.814;2023-04-16T10:54:37;20.40;61.90
66271;DHT22;53063;39.614;8.814;2023-04-16T10:57:07;20.10;63.50
66271;DHT22;53063;39.614;8.814;2023-04-16T10:59:35;19.80;63.80
66271;DHT22;53063;39.614;8.814;2023-04-16T11:02:13;19.30;64.90
66271;DHT22;53063;39.614;8.814;2023-04-16T11:04:42;20.50;64.20
66271;DHT22;53063;39.614;8.814;2023-04-16T11:10:03;22.30;60.00
66271;DHT22;53063;39.614;8.814;2023-04-16T11:12:50;21.30;60.60
66271;DHT22;53063;39.614;8.814;2023-04-16T11:15:16;21.60;61.00
66271;DHT22;53063;39.614;8.814;2023-04-16T11:17:48;21.80;58.30
66271;DHT22;53063;39.614;8.814;2023-04-16T11:20:18;22.30;59.20
66271;DHT22;53063;39.614;8.814;2023-04-16T11:22:45;22.70;57.50
66271;DHT22;53063;39.614;8.814;2023-04-16T11:25:11;22.50;56.70
66271;DHT22;53063;39.614;8.814;2023-04-16T11:27:37;22.60;55.90
66271;DHT22;53063;39.614;8.814;2023-04-16T11:30:05;22.80;57.20
66271;DHT22;53063;39.614;8.814;2023-04-16T11:32:33;23.50;58.50
66271;DHT22;53063;39.614;8.814;2023-04-16T11:35:17;23.50;58.00
66271;DHT22;53063;39.614;8.814;2023-04-16T11:37:43;23.10;59.10
66271;DHT22;53063;39.614;8.814;2023-04-16T11:40:10;23.10;58.40
66271;DHT22;53063;39.614;8.814;2023-04-16T11:42:38;22.30;60.20
66271;DHT22;53063;39.614;8.814;2023-04-16T11:45:08;22.80;60.30
66271;DHT22;53063;39.614;8.814;2023-04-16T11:47:50;22.70;61.30
66271;DHT22;53063;39.614;8.814;2023-04-16T11:50:26;22.10;63.40
66271;DHT22;53063;39.614;8.814;2023-04-16T11:52:54;21.10;65.00
66271;DHT22;53063;39.614;8.814;2023-04-16T11:55:21;20.40;67.60
66271;DHT22;53063;39.614;8.814;2023-04-16T11:57:47;19.50;70.30
66271;DHT22;53063;39.614;8.814;2023-04-16T12:00:14;19.20;73.50
66271;DHT22;53063;39.614;8.814;2023-04-16T12:02:50;19.20;72.60
66271;DHT22;53063;39.614;8.814;2023-04-16T12:05:31;19.80;71.40
66271;DHT22;53063;39.614;8.814;2023-04-16T12:08:27;19.90;69.50
66271;DHT22;53063;39.614;8.814;2023-04-16T12:10:54;19.30;70.30
66271;DHT22;53063;39.614;8.814;2023-04-16T12:13:20;19.00;73.10
66271;DHT22;53063;39.614;8.814;2023-04-16T12:15:47;19.20;74.30
66271;DHT22;53063;39.614;8.814;2023-04-16T12:18:18;19.20;73.20
66271;DHT22;53063;39.614;8.814;2023-04-16T12:20:45;19.20;70.80
66271;DHT22;53063;39.614;8.814;2023-04-16T12:25:49;21.10;67.10
66271;DHT22;53063;39.614;8.814;2023-04-16T12:28:27;21.10;65.30
66271;DHT22;53063;39.614;8.814;2023-04-16T12:30:54;21.20;66.50
66271;DHT22;53063;39.614;8.814;2023-04-16T12:33:20;21.90;64.50
66271;DHT22;53063;39.614;8.814;2023-04-16T12:35:46;21.80;63.20
66271;DHT22;53063;39.614;8.814;2023-04-16T12:38:12;21.80;63.50
66271;DHT22;53063;39.614;8.814;2023-04-16T12:40:40;22.20;63.00
66271;DHT22;53063;39.614;8.814;2023-04-16T12:43:06;22.00;63.50
66271;DHT22;53063;39.614;8.814;2023-04-16T12:45:33;21.90;64.60
66271;DHT22;53063;39.614;8.814;2023-04-16T12:47:59;22.20;63.50
66271;DHT22;53063;39.614;8.814;2023-04-16T12:50:25;22.00;63.60
66271;DHT22;53063;39.614;8.814;2023-04-16T12:52:54;21.00;65.50
66271;DHT22;53063;39.614;8.814;2023-04-16T12:55:20;20.70;65.20
66271;DHT22;53063;39.614;8.814;2023-04-16T12:57:46;20.50;66.90
66271;DHT22;53063;39.614;8.814;2023-04-16T13:00:13;21.30;65.60
66271;DHT22;53063;39.614;8.814;2023-04-16T13:02:41;21.70;63.50
66271;DHT22;53063;39.614;8.814;2023-04-16T13:05:07;21.20;64.40
66271;DHT22;53063;39.614;8.814;2023-04-16T13:07:33;20.70;66.60
66271;DHT22;53063;39.614;8.814;2023-04-16T13:10:00;20.20;67.00
66271;DHT22;53063;39.614;8.814;2023-04-16T13:12:26;20.70;67.10
66271;DHT22;53063;39.614;8.814;2023-04-16T13:14:54;20.70;66.30
66271;DHT22;53063;39.614;8.814;2023-04-16T13:17:20;20.20;68.70
66271;DHT22;53063;39.614;8.814;2023-04-16T13:19:45;19.80;68.00
66271;DHT22;53063;39.614;8.814;2023-04-16T13:22:12;19.70;69.40
66271;DHT22;53063;39.614;8.814;2023-04-16T13:24:38;19.10;70.10
66271;DHT22;53063;39.614;8.814;2023-04-16T13:27:04;18.90;72.40
66271;DHT22;53063;39.614;8.814;2023-04-16T13:29:30;18.90;71.80
66271;DHT22;53063;39.614;8.814;2023-04-16T13:31:56;18.70;72.10
66271;DHT22;53063;39.614;8.814;2023-04-16T13:34:22;19.20;71.40
66271;DHT22;53063;39.614;8.814;2023-04-16T13:36:48;20.20;70.20
66271;DHT22;53063;39.614;8.814;2023-04-16T13:39:14;20.30;68.30
66271;DHT22;53063;39.614;8.814;2023-04-16T13:41:40;20.40;68.40
66271;DHT22;53063;39.614;8.814;2023-04-16T13:44:06;20.30;68.70
66271;DHT22;53063;39.614;8.814;2023-04-16T13:46:32;20.50;67.90
66271;DHT22;53063;39.614;8.814;2023-04-16T13:48:59;20.40;66.90
66271;DHT22;53063;39.614;8.814;2023-04-16T13:51:26;20.50;67.70
66271;DHT22;53063;39.614;8.814;2023-04-16T13:53:53;20.70;67.60
66271;DHT22;53063;39.614;8.814;2023-04-16T13:56:20;20.70;67.70
66271;DHT22;53063;39.614;8.814;2023-04-16T13:58:46;21.00;67.70
66271;DHT22;53063;39.614;8.814;2023-04-16T14:01:12;20.90;67.20
66271;DHT22;53063;39.614;8.814;2023-04-16T14:03:38;20.70;66.20
66271;DHT22;53063;39.614;8.814;2023-04-16T14:06:05;21.00;65.70
66271;DHT22;53063;39.614;8.814;2023-04-16T14:08:31;20.80;65.40
66271;DHT22;53063;39.614;8.814;2023-04-16T14:10:57;20.70;64.00
66271;DHT22;53063;39.614;8.814;2023-04-16T14:13:23;20.40;64.70
66271;DHT22;53063;39.614;8.814;2023-04-16T14:15:52;20.00;66.80
66271;DHT22;53063;39.614;8.814;2023-04-16T14:18:17;19.90;66.80
66271;DHT22;53063;39.614;8.814;2023-04-16T14:20:43;20.20;66.80
66271;DHT22;53063;39.614;8.814;2023-04-16T14:23:09;19.90;66.10
66271;DHT22;53063;39.614;8.814;2023-04-16T14:25:37;20.20;66.10
66271;DHT22;53063;39.614;8.814;2023-04-16T14:28:03;20.10;65.00
66271;DHT22;53063;39.614;8.814;2023-04-16T14:30:29;20.00;65.90
66271;DHT22;53063;39.614;8.814;2023-04-16T14:32:55;20.00;66.60
66271;DHT22;53063;39.614;8.814;2023-04-16T14:35:21;19.70;67.80
66271;DHT22;53063;39.614;8.814;2023-04-16T14:37:47;20.00;68.20
66271;DHT22;53063;39.614;8.814;2023-04-16T14:40:13;20.00;68.20
66271;DHT22;53063;39.614;8.814;2023-04-16T14:42:39;19.50;69.20
66271;DHT22;53063;39.614;8.814;2023-04-16T14:45:07;19.50;70.30
66271;DHT22;53063;39.614;8.814;2023-04-16T14:47:34;19.50;71.20
66271;DHT22;53063;39.614;8.814;2023-04-16T14:50:01;19.40;69.20
66271;DHT22;53063;39.614;8.814;2023-04-16T14:52:29;19.00;70.10
66271;DHT22;53063;39.614;8.814;2023-04-16T14:54:56;19.10;71.20
66271;DHT22;53063;39.614;8.814;2023-04-16T14:57:22;19.10;70.50
66271;DHT22;53063;39.614;8.814;2023-04-16T14:59:48;18.80;71.60
66271;DHT22;53063;39.614;8.814;2023-04-16T15:02:15;18.80;72.60
66271;DHT22;53063;39.614;8.814;2023-04-16T15:04:41;19.10;72.80
66271;DHT22;53063;39.614;8.814;2023-04-16T15:07:07;19.40;71.60
66271;DHT22;53063;39.614;8.814;2023-04-16T15:09:33;19.30;71.20
66271;DHT22;53063;39.614;8.814;2023-04-16T15:11:59;19.10;71.10
66271;DHT22;53063;39.614;8.814;2023-04-16T15:14:26;18.70;72.70
66271;DHT22;53063;39.614;8.814;2023-04-16T15:16:52;18.70;73.20
66271;DHT22;53063;39.614;8.814;2023-04-16T15:19:18;18.60;73.20
66271;DHT22;53063;39.614;8.814;2023-04-16T15:21:44;18.70;73.10
66271;DHT22;53063;39.614;8.814;2023-04-16T15:24:10;18.60;73.50
66271;DHT22;53063;39.614;8.814;2023-04-16T15:26:36;18.60;74.60
66271;DHT22;53063;39.614;8.814;2023-04-16T15:29:03;18.40;73.70
66271;DHT22;53063;39.614;8.814;2023-04-16T15:31:29;18.20;75.00
66271;DHT22;53063;39.614;8.814;2023-04-16T15:33:54;18.20;76.60
66271;DHT22;53063;39.614;8.814;2023-04-16T15:36:21;18.40;76.20
66271;DHT22;53063;39.614;8.814;2023-04-16T15:38:46;18.20;73.10
66271;DHT22;53063;39.614;8.814;2023-04-16T15:41:12;18.00;74.50
66271;DHT22;53063;39.614;8.814;2023-04-16T15:43:38;18.00;74.70